createdAt,value
2017-11-19T00:00:16.200Z,23.50
2017-11-19T00:02:43.588Z,24.17
2017-11-19T00:05:10.989Z,27.17
2017-11-19T00:07:38.444Z,23.83
2017-11-19T00:10:05.841Z,24.03
2017-11-19T00:12:33.227Z,26.37
2017-11-19T00:15:00.628Z,25.70
2017-11-19T00:17:28.021Z,23.90
2017-11-19T00:19:55.412Z,26.33
2017-11-19T00:22:22.799Z,25.43
2017-11-19T00:24:50.203Z,24.70
2017-11-19T00:27:17.595Z,27.77
2017-11-19T00:29:44.983Z,27.90
2017-11-19T00:32:12.383Z,29.00
2017-11-19T00:34:39.784Z,27.83
2017-11-19T00:37:07.174Z,27.57
2017-11-19T00:39:34.572Z,29.00
2017-11-19T00:42:01.976Z,26.97
2017-11-19T00:44:29.379Z,27.67
2017-11-19T00:46:56.772Z,27.57
2017-11-19T00:49:24.168Z,28.80
2017-11-19T00:51:51.555Z,28.73
2017-11-19T00:54:18.957Z,29.20
2017-11-19T00:56:46.340Z,27.80
2017-11-19T00:59:13.783Z,28.37
2017-11-19T01:01:41.180Z,28.63
2017-11-19T01:04:08.596Z,26.87
2017-11-19T01:06:35.997Z,24.97
2017-11-19T01:09:03.385Z,23.57
2017-11-19T01:11:30.783Z,22.67
2017-11-19T01:13:58.193Z,19.67
2017-11-19T01:16:25.589Z,20.30
2017-11-19T01:18:52.980Z,21.50
2017-11-19T01:21:20.387Z,21.73
2017-11-19T01:23:47.767Z,21.97
2017-11-19T01:26:15.167Z,21.93
2017-11-19T01:28:42.563Z,21.43
2017-11-19T01:31:09.961Z,22.70
2017-11-19T01:33:37.353Z,21.07
2017-11-19T01:36:04.748Z,20.07
2017-11-19T01:38:32.143Z,21.67
2017-11-19T01:40:59.531Z,20.80
2017-11-19T01:43:26.923Z,20.73
2017-11-19T01:45:54.320Z,20.13
2017-11-19T01:48:21.724Z,20.53
2017-11-19T01:50:49.119Z,19.93
2017-11-19T01:53:16.508Z,21.00
2017-11-19T01:55:43.905Z,21.00
2017-11-19T01:58:11.292Z,20.93
2017-11-19T02:00:38.689Z,21.43
2017-11-19T02:03:06.075Z,20.27
2017-11-19T02:05:33.485Z,21.87
2017-11-19T02:08:00.880Z,21.03
2017-11-19T02:10:28.270Z,20.03
2017-11-19T02:12:55.667Z,20.93
2017-11-19T02:15:23.051Z,20.50
2017-11-19T02:17:50.457Z,19.40
2017-11-19T02:20:17.839Z,20.00
2017-11-19T02:22:45.240Z,19.57
2017-11-19T02:25:12.631Z,20.87
2017-11-19T02:27:40.035Z,19.30
2017-11-19T02:30:07.454Z,18.90
2017-11-19T02:32:34.816Z,19.50
2017-11-19T02:35:02.219Z,20.63
2017-11-19T02:37:29.619Z,21.03
2017-11-19T02:39:57.008Z,19.97
2017-11-19T02:42:24.407Z,20.03
2017-11-19T02:44:51.800Z,20.50
2017-11-19T02:47:19.196Z,20.00
2017-11-19T02:49:46.599Z,20.77
2017-11-19T02:52:13.992Z,19.90
2017-11-19T02:54:41.380Z,20.67
2017-11-19T02:57:08.787Z,20.07
2017-11-19T02:59:36.179Z,22.00
2017-11-19T03:02:03.576Z,20.13
2017-11-19T03:04:30.979Z,21.03
2017-11-19T03:06:58.384Z,20.97
2017-11-19T03:09:25.779Z,19.77
2017-11-19T03:11:53.184Z,19.53
2017-11-19T03:14:20.604Z,20.87
2017-11-19T03:16:48.000Z,20.30
2017-11-19T03:19:15.396Z,21.03
2017-11-19T03:21:43.120Z,21.67
2017-11-19T03:24:10.507Z,21.50
2017-11-19T03:26:37.903Z,21.53
2017-11-19T03:29:05.307Z,20.93
2017-11-19T03:31:33.159Z,21.97
2017-11-19T03:34:00.548Z,21.53
2017-11-19T03:36:27.973Z,20.60
2017-11-19T03:38:55.360Z,20.30
2017-11-19T03:41:22.753Z,21.20
2017-11-19T03:43:50.160Z,24.30
2017-11-19T03:46:17.552Z,19.43
2017-11-19T03:48:44.951Z,20.67
2017-11-19T03:51:12.385Z,19.27
2017-11-19T03:53:39.788Z,21.23
2017-11-19T03:56:07.187Z,19.63
2017-11-19T03:58:34.590Z,24.03
2017-11-19T04:01:01.989Z,20.43
2017-11-19T04:03:29.381Z,19.53
2017-11-19T04:05:56.785Z,20.10
2017-11-19T04:08:24.172Z,19.70
2017-11-19T04:10:51.576Z,18.90
2017-11-19T04:13:18.991Z,18.93
2017-11-19T04:15:46.382Z,20.17
2017-11-19T04:18:13.772Z,17.87
2017-11-19T04:20:41.208Z,17.50
2017-11-19T04:23:08.594Z,18.03
2017-11-19T04:25:36.011Z,17.10
2017-11-19T04:28:03.447Z,18.67
2017-11-19T04:30:30.856Z,17.77
2017-11-19T04:32:58.248Z,18.93
2017-11-19T04:35:25.667Z,17.45
2017-11-19T04:37:53.055Z,18.37
2017-11-19T04:40:20.460Z,17.60
2017-11-19T04:42:47.866Z,18.20
2017-11-19T04:45:15.254Z,18.65
2017-11-19T04:47:42.656Z,18.37
2017-11-19T04:50:10.063Z,18.00
2017-11-19T04:52:37.455Z,18.40
2017-11-19T04:55:04.842Z,18.60
2017-11-19T04:57:32.266Z,17.00
2017-11-19T04:59:59.656Z,18.03
2017-11-19T05:02:27.056Z,18.80
2017-11-19T05:04:54.471Z,18.00
2017-11-19T05:07:21.863Z,19.20
2017-11-19T05:09:49.269Z,19.90
2017-11-19T05:12:16.708Z,18.50
2017-11-19T05:14:44.109Z,18.90
2017-11-19T05:17:11.516Z,18.33
2017-11-19T05:19:38.928Z,19.60
2017-11-19T05:22:06.329Z,17.20
2017-11-19T05:24:33.737Z,19.33
2017-11-19T05:27:01.139Z,16.98
2017-11-19T05:29:28.539Z,18.60
2017-11-19T05:31:55.934Z,20.02
2017-11-19T05:34:23.348Z,18.45
2017-11-19T05:36:50.748Z,17.42
2017-11-19T05:39:18.149Z,17.33
2017-11-19T05:41:45.569Z,19.35
2017-11-19T05:44:12.972Z,18.17
2017-11-19T05:46:40.379Z,21.20
2017-11-19T05:49:07.804Z,18.92
2017-11-19T05:51:35.206Z,20.10
2017-11-19T05:54:02.607Z,17.25
2017-11-19T05:56:30.014Z,18.93
2017-11-19T05:58:57.407Z,17.65
2017-11-19T06:01:24.816Z,17.52
2017-11-19T06:03:52.232Z,18.90
2017-11-19T06:06:19.643Z,16.62
2017-11-19T06:08:47.044Z,17.27
2017-11-19T06:11:14.459Z,17.60
2017-11-19T06:13:41.870Z,15.33
2017-11-19T06:16:09.255Z,16.23
2017-11-19T06:18:36.660Z,16.00
2017-11-19T06:21:04.051Z,16.42
2017-11-19T06:23:31.450Z,16.10
2017-11-19T06:25:58.883Z,16.13
2017-11-19T06:28:26.279Z,16.12
2017-11-19T06:30:53.675Z,14.47
2017-11-19T06:33:21.080Z,15.80
2017-11-19T06:35:48.469Z,16.43
2017-11-19T06:38:15.868Z,16.43
2017-11-19T06:40:43.264Z,14.80
2017-11-19T06:43:10.682Z,15.63
2017-11-19T06:45:38.079Z,15.73
2017-11-19T06:48:05.503Z,14.50
2017-11-19T06:50:32.913Z,15.50
2017-11-19T06:53:00.361Z,15.17
2017-11-19T06:55:27.788Z,18.20
2017-11-19T06:57:55.189Z,15.53
2017-11-19T07:00:22.579Z,15.98
2017-11-19T07:02:49.979Z,14.57
2017-11-19T07:05:17.369Z,13.50
2017-11-19T07:07:44.764Z,14.63
2017-11-19T07:10:12.184Z,14.43
2017-11-19T07:12:39.589Z,14.00
2017-11-19T07:15:06.991Z,14.30
2017-11-19T07:17:34.527Z,13.53
2017-11-19T07:20:01.916Z,13.23
2017-11-19T07:22:29.313Z,14.10
2017-11-19T07:24:56.727Z,13.13
2017-11-19T07:27:24.117Z,13.87
2017-11-19T07:29:51.503Z,15.80
2017-11-19T07:32:18.913Z,13.20
2017-11-19T07:34:46.308Z,12.97
2017-11-19T07:37:13.702Z,11.87
2017-11-19T07:39:41.113Z,17.10
2017-11-19T07:42:09.167Z,15.77
2017-11-19T07:44:36.577Z,13.27
2017-11-19T07:47:03.976Z,12.97
2017-11-19T07:49:31.367Z,11.03
2017-11-19T07:51:58.756Z,12.43
2017-11-19T07:54:26.160Z,12.50
2017-11-19T07:56:53.553Z,12.60
2017-11-19T07:59:20.936Z,18.10
2017-11-19T08:01:48.336Z,12.23
2017-11-19T08:04:15.731Z,20.97
2017-11-19T08:06:43.124Z,14.90
2017-11-19T08:09:10.520Z,10.60
2017-11-19T08:11:37.919Z,12.33
2017-11-19T08:14:05.319Z,11.03
2017-11-19T08:16:32.719Z,10.90
2017-11-19T08:19:00.117Z,10.67
2017-11-19T08:21:27.505Z,13.73
2017-11-19T08:23:54.903Z,11.57
2017-11-19T08:26:22.299Z,10.00
2017-11-19T08:28:49.687Z,10.57
2017-11-19T08:31:17.095Z,13.87
2017-11-19T08:33:44.480Z,12.60
2017-11-19T08:36:11.871Z,10.90
2017-11-19T08:38:39.283Z,12.00
2017-11-19T08:41:06.656Z,9.90
2017-11-19T08:43:34.039Z,11.43
2017-11-19T08:46:01.439Z,13.07
2017-11-19T08:48:28.850Z,10.53
2017-11-19T08:50:56.233Z,11.23
2017-11-19T08:53:23.629Z,16.00
2017-11-19T08:55:51.009Z,9.80
2017-11-19T08:58:18.397Z,10.47
2017-11-19T09:00:45.791Z,11.50
2017-11-19T09:03:13.174Z,10.50
2017-11-19T09:05:40.568Z,10.53
2017-11-19T09:08:07.989Z,10.70
2017-11-19T09:10:35.440Z,13.73
2017-11-19T09:13:02.816Z,10.37
2017-11-19T09:15:30.219Z,13.00
2017-11-19T09:17:57.615Z,10.73
2017-11-19T09:20:25.007Z,9.97
2017-11-19T09:22:52.403Z,11.83
2017-11-19T09:25:19.791Z,10.30
2017-11-19T09:27:47.180Z,11.30
2017-11-19T09:30:14.603Z,10.73
2017-11-19T09:32:42.000Z,11.53
2017-11-19T09:35:09.412Z,10.30
2017-11-19T09:37:36.819Z,11.50
2017-11-19T09:40:04.212Z,11.30
2017-11-19T09:42:31.597Z,10.20
2017-11-19T09:44:58.992Z,9.97
2017-11-19T09:47:26.379Z,14.70
2017-11-19T09:49:53.776Z,10.20
2017-11-19T09:52:21.181Z,11.30
2017-11-19T09:54:48.563Z,11.20
2017-11-19T09:57:15.949Z,9.67
2017-11-19T09:59:43.348Z,14.53
2017-11-19T10:02:10.739Z,12.10
2017-11-19T10:04:38.140Z,10.70
2017-11-19T10:07:05.547Z,10.00
2017-11-19T10:09:32.936Z,8.63
2017-11-19T10:12:00.318Z,10.50
2017-11-19T10:14:27.736Z,8.70
2017-11-19T10:16:55.129Z,10.80
2017-11-19T10:19:22.595Z,11.03
2017-11-19T10:21:49.999Z,9.27
2017-11-19T10:24:17.387Z,13.20
2017-11-19T10:26:44.779Z,8.97
2017-11-19T10:29:12.212Z,15.23
2017-11-19T10:31:39.595Z,10.40
2017-11-19T10:34:06.987Z,12.97
2017-11-19T10:36:34.379Z,15.77
2017-11-19T10:39:01.777Z,15.30
2017-11-19T10:41:29.163Z,10.10
2017-11-19T10:43:56.583Z,10.40
2017-11-19T10:46:24.851Z,11.30
2017-11-19T10:48:52.243Z,10.43
2017-11-19T10:51:19.659Z,11.37
2017-11-19T10:53:47.043Z,12.70
2017-11-19T10:56:14.431Z,11.60
2017-11-19T10:58:41.836Z,12.10
2017-11-19T11:01:09.984Z,13.60
2017-11-19T11:03:37.375Z,17.10
2017-11-19T11:06:04.822Z,10.73
2017-11-19T11:08:32.207Z,11.17
2017-11-19T11:10:59.593Z,9.27
2017-11-19T11:13:27.091Z,15.83
2017-11-19T11:15:54.479Z,12.17
2017-11-19T11:18:22.911Z,15.63
2017-11-19T11:20:50.315Z,10.67
2017-11-19T11:23:17.703Z,13.67
2017-11-19T11:25:45.101Z,15.67
2017-11-19T11:28:12.649Z,10.77
2017-11-19T11:30:40.025Z,9.30
2017-11-19T11:33:07.532Z,11.90
2017-11-19T11:35:34.923Z,11.37
2017-11-19T11:38:02.303Z,15.53
2017-11-19T11:40:29.691Z,13.97
2017-11-19T11:42:57.090Z,11.03
2017-11-19T11:45:24.480Z,16.00
2017-11-19T11:47:51.871Z,15.30
2017-11-19T11:50:20.090Z,17.80
2017-11-19T11:52:47.479Z,17.80
2017-11-19T11:55:14.873Z,20.87
2017-11-19T11:57:42.292Z,14.20
2017-11-19T12:00:09.736Z,14.73
2017-11-19T12:02:37.124Z,16.67
2017-11-19T12:05:04.537Z,11.60
2017-11-19T12:07:31.925Z,13.00
2017-11-19T12:09:59.326Z,12.80
2017-11-19T12:12:26.729Z,16.10
2017-11-19T12:14:54.115Z,20.90
2017-11-19T12:17:23.524Z,14.53
2017-11-19T12:19:50.935Z,14.20
2017-11-19T12:22:18.320Z,13.83
2017-11-19T12:24:45.707Z,13.53
2017-11-19T12:27:13.113Z,14.10
2017-11-19T12:29:40.492Z,13.00
2017-11-19T12:32:07.889Z,15.37
2017-11-19T12:34:35.292Z,21.93
2017-11-19T12:37:02.681Z,20.97
2017-11-19T12:39:30.065Z,14.80
2017-11-19T12:41:57.459Z,16.20
2017-11-19T12:44:24.939Z,15.37
2017-11-19T12:46:52.337Z,18.23
2017-11-19T12:49:19.760Z,11.73
2017-11-19T12:51:47.156Z,15.57
2017-11-19T12:54:14.539Z,13.30
2017-11-19T12:56:41.964Z,18.83
2017-11-19T12:59:09.351Z,20.87
2017-11-19T13:01:36.748Z,15.70
2017-11-19T13:04:04.141Z,15.30
2017-11-19T13:06:31.532Z,16.93
2017-11-19T13:08:58.930Z,16.10
2017-11-19T13:11:26.351Z,22.13
2017-11-19T13:13:53.748Z,21.07
2017-11-19T13:16:21.136Z,13.40
2017-11-19T13:18:48.549Z,13.07
2017-11-19T13:21:15.941Z,16.23
2017-11-19T13:23:43.360Z,10.63
2017-11-19T13:26:10.744Z,13.63
2017-11-19T13:28:38.161Z,11.37
2017-11-19T13:31:05.543Z,17.80
2017-11-19T13:33:32.973Z,15.73
2017-11-19T13:36:00.360Z,11.70
2017-11-19T13:38:27.775Z,16.13
2017-11-19T13:40:55.224Z,18.40
2017-11-19T13:43:22.600Z,11.50
2017-11-19T13:45:49.996Z,18.20
2017-11-19T13:48:17.424Z,16.90
2017-11-19T13:50:44.820Z,16.30
2017-11-19T13:53:12.203Z,18.97
2017-11-19T13:55:39.607Z,14.90
2017-11-19T13:58:07.447Z,12.33
2017-11-19T14:00:34.827Z,13.40
2017-11-19T14:03:02.232Z,13.10
2017-11-19T14:05:29.622Z,16.10
2017-11-19T14:07:57.020Z,15.50
2017-11-19T14:10:24.423Z,15.07
2017-11-19T14:12:51.848Z,21.20
2017-11-19T14:15:19.229Z,13.53
2017-11-19T14:17:46.632Z,12.93
2017-11-19T14:20:14.015Z,15.70
2017-11-19T14:22:41.395Z,12.37
2017-11-19T14:25:08.792Z,12.07
2017-11-19T14:27:36.187Z,14.37
2017-11-19T14:30:03.572Z,15.50
2017-11-19T14:32:30.969Z,15.23
2017-11-19T14:34:58.360Z,10.10
2017-11-19T14:37:25.748Z,11.93
2017-11-19T14:39:53.148Z,17.80
2017-11-19T14:42:20.536Z,10.17
2017-11-19T14:44:47.912Z,9.70
2017-11-19T14:47:15.328Z,13.53
2017-11-19T14:49:42.716Z,10.00
2017-11-19T14:52:10.105Z,10.30
2017-11-19T14:54:37.504Z,17.10
2017-11-19T14:57:04.892Z,10.37
2017-11-19T14:59:32.281Z,14.13
2017-11-19T15:01:59.723Z,17.80
2017-11-19T15:04:27.174Z,12.10
2017-11-19T15:06:54.563Z,13.00
2017-11-19T15:09:22.847Z,11.90
2017-11-19T15:11:50.239Z,17.23
2017-11-19T15:14:17.626Z,12.23
2017-11-19T15:16:47.272Z,12.53
2017-11-19T15:19:14.660Z,12.90
2017-11-19T15:21:42.056Z,12.70
2017-11-19T15:24:09.463Z,14.43
2017-11-19T15:26:36.861Z,15.50
2017-11-19T15:29:04.297Z,14.70
2017-11-19T15:31:31.667Z,15.57
2017-11-19T15:33:59.115Z,19.50
2017-11-19T15:36:26.508Z,13.47
2017-11-19T15:38:53.916Z,17.10
2017-11-19T15:41:21.315Z,13.70
2017-11-19T15:43:48.703Z,13.93
2017-11-19T15:46:16.098Z,15.13
2017-11-19T15:48:43.491Z,16.00
2017-11-19T15:51:10.886Z,12.43
2017-11-19T15:53:38.312Z,13.20
2017-11-19T15:56:05.708Z,17.90
2017-11-19T15:58:34.531Z,17.63
2017-11-19T16:01:01.952Z,16.03
2017-11-19T16:03:29.352Z,15.40
2017-11-19T16:05:56.727Z,14.60
2017-11-19T16:08:24.131Z,16.07
2017-11-19T16:10:51.522Z,17.03
2017-11-19T16:13:18.914Z,19.13
2017-11-19T16:15:47.307Z,15.70
2017-11-19T16:18:14.708Z,16.80
2017-11-19T16:20:42.096Z,18.43
2017-11-19T16:23:09.523Z,15.70
2017-11-19T16:25:37.786Z,17.23
2017-11-19T16:28:05.195Z,14.17
2017-11-19T16:30:33.040Z,23.17
2017-11-19T16:33:00.428Z,15.50
2017-11-19T16:35:27.815Z,13.57
2017-11-19T16:37:55.917Z,14.67
2017-11-19T16:40:24.049Z,15.17
2017-11-19T16:42:51.440Z,15.13
2017-11-19T16:45:18.840Z,13.60
2017-11-19T16:47:46.298Z,15.77
2017-11-19T16:50:13.692Z,14.10
2017-11-19T16:52:41.112Z,16.20
2017-11-19T16:55:08.506Z,12.67
2017-11-19T16:57:35.896Z,12.87
2017-11-19T17:00:03.339Z,12.90
2017-11-19T17:02:31.927Z,12.87
2017-11-19T17:04:59.344Z,12.07
2017-11-19T17:07:26.769Z,13.23
2017-11-19T17:09:54.249Z,14.67
2017-11-19T17:12:21.673Z,13.77
2017-11-19T17:14:49.084Z,14.97
2017-11-19T17:17:16.471Z,13.83
2017-11-19T17:19:43.873Z,16.27
2017-11-19T17:22:11.340Z,19.57
2017-11-19T17:24:39.860Z,14.90
2017-11-19T17:27:14.379Z,13.30
2017-11-19T17:29:41.816Z,15.57
2017-11-19T17:32:09.213Z,13.30
2017-11-19T17:34:36.627Z,14.20
2017-11-19T17:37:04.055Z,18.47
2017-11-19T17:39:31.482Z,14.63
2017-11-19T17:41:58.876Z,16.70
2017-11-19T17:44:26.251Z,14.27
2017-11-19T17:46:53.698Z,17.60
2017-11-19T17:49:21.203Z,15.00
2017-11-19T17:51:48.597Z,13.77
2017-11-19T17:54:15.995Z,17.93
2017-11-19T17:56:43.412Z,17.13
2017-11-19T17:59:10.805Z,15.27
2017-11-19T18:01:38.199Z,18.00
2017-11-19T18:04:05.649Z,15.37
2017-11-19T18:06:33.052Z,14.53
2017-11-19T18:09:00.428Z,14.33
2017-11-19T18:11:28.054Z,17.50
2017-11-19T18:13:55.445Z,20.73
2017-11-19T18:16:28.591Z,11.53
2017-11-19T18:18:55.988Z,11.77
2017-11-19T18:21:23.373Z,10.40
2017-11-19T18:23:50.792Z,11.27
2017-11-19T18:26:18.187Z,11.30
2017-11-19T18:28:45.580Z,12.00
2017-11-19T18:31:12.979Z,12.60
2017-11-19T18:33:40.372Z,13.63
2017-11-19T18:36:07.762Z,16.50
2017-11-19T18:38:35.167Z,16.03
2017-11-19T18:41:02.560Z,14.40
2017-11-19T18:43:29.943Z,14.30
2017-11-19T18:45:57.346Z,14.83
2017-11-19T18:48:24.736Z,14.73
2017-11-19T18:50:52.124Z,16.07
2017-11-19T18:53:19.547Z,16.70
2017-11-19T18:55:46.940Z,15.90
2017-11-19T18:58:14.327Z,20.90
2017-11-19T19:00:41.732Z,19.93
2017-11-19T19:03:09.124Z,15.63
2017-11-19T19:05:36.513Z,15.43
2017-11-19T19:08:03.914Z,18.73
2017-11-19T19:10:31.314Z,22.50
2017-11-19T19:12:58.699Z,16.70
2017-11-19T19:15:26.100Z,19.43
2017-11-19T19:17:53.516Z,17.00
2017-11-19T19:20:20.959Z,16.63
2017-11-19T19:22:48.379Z,23.63
2017-11-19T19:25:15.771Z,18.80
2017-11-19T19:27:43.164Z,17.07
2017-11-19T19:30:10.587Z,23.57
2017-11-19T19:32:37.976Z,21.90
2017-11-19T19:35:05.368Z,16.60
2017-11-19T19:37:32.779Z,17.80
2017-11-19T19:40:00.168Z,18.27
2017-11-19T19:42:27.558Z,22.47
2017-11-19T19:45:02.160Z,19.13
2017-11-19T19:47:29.552Z,28.23
2017-11-19T19:49:56.943Z,19.07
2017-11-19T19:52:24.362Z,19.37
2017-11-19T19:55:05.111Z,19.13
2017-11-19T19:57:33.355Z,17.97
2017-11-19T20:00:00.747Z,22.37
2017-11-19T20:02:28.155Z,17.37
2017-11-19T20:04:55.569Z,18.63
2017-11-19T20:07:22.963Z,15.37
2017-11-19T20:09:50.384Z,17.00
2017-11-19T20:12:17.799Z,18.43
2017-11-19T20:14:45.211Z,16.67
2017-11-19T20:17:12.615Z,21.27
2017-11-19T20:19:40.028Z,20.10
2017-11-19T20:22:07.846Z,18.87
2017-11-19T20:24:35.258Z,14.87
2017-11-19T20:27:02.667Z,20.57
2017-11-19T20:29:30.068Z,18.23
2017-11-19T20:31:57.494Z,20.00
2017-11-19T20:34:24.977Z,14.57
2017-11-19T20:36:52.375Z,16.87
2017-11-19T20:39:19.772Z,15.27
2017-11-19T20:41:47.175Z,20.30
2017-11-19T20:44:14.572Z,19.70
2017-11-19T20:46:41.980Z,21.60
2017-11-19T20:49:09.391Z,18.70
2017-11-19T20:51:36.796Z,17.40
2017-11-19T20:54:04.198Z,18.13
2017-11-19T20:56:31.620Z,22.53
2017-11-19T20:58:59.011Z,16.50
2017-11-19T21:01:26.403Z,19.10
2017-11-19T21:03:53.824Z,20.60
2017-11-19T21:06:21.211Z,24.53
2017-11-19T21:08:48.608Z,16.50
2017-11-19T21:11:16.023Z,19.77
2017-11-19T21:13:43.416Z,21.67
2017-11-19T21:16:10.826Z,19.83
2017-11-19T21:18:38.236Z,17.03
2017-11-19T21:21:05.627Z,16.67
2017-11-19T21:23:33.019Z,16.10
2017-11-19T21:26:00.432Z,18.03
2017-11-19T21:28:27.815Z,16.70
2017-11-19T21:30:55.208Z,18.00
2017-11-19T21:33:22.607Z,16.03
2017-11-19T21:35:50.005Z,18.17
2017-11-19T21:38:17.391Z,18.77
2017-11-19T21:40:44.795Z,18.73
2017-11-19T21:43:12.186Z,21.33
2017-11-19T21:45:39.583Z,15.77
2017-11-19T21:48:06.987Z,15.90
2017-11-19T21:50:34.381Z,15.73
2017-11-19T21:53:01.767Z,16.50
2017-11-19T21:55:29.170Z,16.47
2017-11-19T21:57:56.556Z,16.87
2017-11-19T22:00:23.982Z,17.53
2017-11-19T22:02:51.399Z,15.20
2017-11-19T22:05:18.792Z,16.93
2017-11-19T22:07:46.192Z,16.53
2017-11-19T22:10:13.607Z,18.17
2017-11-19T22:12:41.003Z,19.70
2017-11-19T22:15:08.404Z,15.43
2017-11-19T22:17:35.803Z,25.03
2017-11-19T22:20:03.311Z,18.23
2017-11-19T22:22:30.691Z,17.73
2017-11-19T22:24:58.095Z,16.30
2017-11-19T22:27:25.501Z,15.60
2017-11-19T22:29:52.890Z,22.13
2017-11-19T22:32:20.324Z,16.83
2017-11-19T22:34:47.695Z,18.70
2017-11-19T22:37:15.093Z,18.70
2017-11-19T22:39:42.496Z,15.90
2017-11-19T22:42:09.891Z,16.13
2017-11-19T22:44:37.298Z,17.00
2017-11-19T22:47:04.724Z,17.47
2017-11-19T22:49:32.119Z,17.87
2017-11-19T22:51:59.524Z,16.20
2017-11-19T22:54:26.936Z,17.40
2017-11-19T22:56:54.331Z,16.50
2017-11-19T22:59:21.729Z,17.37
2017-11-19T23:01:49.152Z,20.00
2017-11-19T23:04:16.539Z,15.93
2017-11-19T23:06:43.927Z,17.47
2017-11-19T23:09:11.351Z,19.53
2017-11-19T23:11:38.749Z,22.50
2017-11-19T23:14:06.140Z,16.83
2017-11-19T23:16:33.564Z,21.73
2017-11-19T23:19:00.956Z,17.30
2017-11-19T23:21:28.340Z,18.17
2017-11-19T23:23:55.739Z,17.60
2017-11-19T23:26:23.135Z,18.27
2017-11-19T23:28:50.539Z,19.47
2017-11-19T23:31:17.941Z,24.73
2017-11-19T23:33:45.328Z,19.87
2017-11-19T23:36:12.719Z,19.97
2017-11-19T23:38:40.131Z,26.27
2017-11-19T23:41:07.527Z,25.07
2017-11-19T23:43:34.920Z,21.73
2017-11-19T23:46:02.325Z,26.83
2017-11-19T23:48:29.739Z,23.30
2017-11-19T23:50:57.124Z,26.90
2017-11-19T23:53:24.543Z,23.70
2017-11-19T23:55:51.948Z,22.70
2017-11-19T23:58:19.340Z,20.43
